Time;durP1;ratioP1;P1;durP2;ratioP2;P2;SDS_P1;SDS_P2;PMS_P1;PMS_P2;Temp;Humidity;BMP_temperature;BMP_pressure;BME280_temperature;BME280_humidity;BME280_pressure;Samples;Min_cycle;Max_cycle;Signal;HPM_P1;HPM_P2
2022/11/20 00:00:29;;;;;;;4.13;0.60;;;16.90;78.10;;;;;;5066258;28;20182;-69
2022/11/20 00:02:55;;;;;;;7.07;0.30;;;16.90;78.10;;;;;;5068739;28;20179;-69
2022/11/20 00:05:20;;;;;;;0.95;0.30;;;17.00;76.20;;;;;;5062141;28;20206;-70
2022/11/20 00:07:46;;;;;;;0.28;0.28;;;17.30;75.60;;;;;;5069126;28;20210;-70
2022/11/20 00:10:12;;;;;;;0.65;0.30;;;17.50;75.60;;;;;;5070038;28;20221;-70
2022/11/20 00:12:38;;;;;;;0.30;0.30;;;17.80;74.60;;;;;;5066579;28;20182;-71
2022/11/20 00:15:04;;;;;;;0.28;0.28;;;18.00;74.10;;;;;;5075278;28;20725;-70
2022/11/20 00:17:30;;;;;;;0.45;0.45;;;18.20;73.90;;;;;;5075006;28;20193;-69
2022/11/20 00:19:55;;;;;;;1.75;0.35;;;18.40;72.80;;;;;;5077075;28;20185;-70
2022/11/20 00:22:22;;;;;;;0.30;0.30;;;18.50;72.90;;;;;;5074884;28;20209;-69
2022/11/20 00:24:47;;;;;;;3.85;0.20;;;18.70;72.60;;;;;;5070903;28;20179;-70
2022/11/20 00:27:13;;;;;;;0.98;0.20;;;18.70;71.60;;;;;;5065548;28;20311;-70
2022/11/20 00:29:38;;;;;;;0.20;0.20;;;18.80;70.90;;;;;;5072311;28;20183;-71
2022/11/20 00:32:04;;;;;;;0.95;0.40;;;18.90;70.70;;;;;;5071039;28;20263;-72
2022/11/20 00:34:30;;;;;;;1.38;0.30;;;19.00;70.90;;;;;;5071765;28;20243;-72
2022/11/20 00:36:55;;;;;;;0.30;0.30;;;19.20;70.70;;;;;;5070952;28;20190;-71
2022/11/20 00:39:21;;;;;;;1.55;0.20;;;19.20;69.50;;;;;;5074926;28;20261;-72
2022/11/20 00:41:47;;;;;;;0.90;0.20;;;19.30;69.50;;;;;;5066355;28;20199;-72
2022/11/20 00:44:12;;;;;;;0.20;0.20;;;19.30;69.90;;;;;;5073477;28;20217;-71
2022/11/20 00:46:38;;;;;;;0.20;0.10;;;19.40;69.60;;;;;;5073419;28;20227;-70
2022/11/20 00:49:03;;;;;;;0.30;0.30;;;19.50;69.40;;;;;;5071627;28;20175;-70
2022/11/20 00:51:29;;;;;;;1.17;0.30;;;19.60;70.50;;;;;;5071665;28;20244;-72
2022/11/20 00:53:56;;;;;;;0.20;0.20;;;19.60;68.80;;;;;;5069423;28;20735;-73
2022/11/20 00:56:22;;;;;;;0.30;0.30;;;19.60;69.20;;;;;;5067372;28;20195;-71
2022/11/20 00:58:48;;;;;;;1.70;0.20;;;19.60;68.50;;;;;;5068412;28;20213;-72
2022/11/20 01:01:25;;;;;;;3.20;0.40;;;19.60;68.60;;;;;;5068798;28;20573;-72
2022/11/20 01:03:52;;;;;;;0.20;0.20;;;19.60;68.50;;;;;;5071978;28;20185;-70
2022/11/20 01:06:30;;;;;;;0.43;0.20;;;19.60;68.30;;;;;;5070304;28;20190;-70
2022/11/20 01:08:59;;;;;;;0.20;0.20;;;19.60;68.20;;;;;;5062495;28;20183;-71
2022/11/20 01:11:31;;;;;;;0.30;0.30;;;19.60;68.20;;;;;;5066956;28;20740;-72
2022/11/20 01:13:58;;;;;;;0.20;0.20;;;19.70;69.10;;;;;;5067759;28;20174;-72
2022/11/20 01:16:26;;;;;;;0.20;0.20;;;19.70;68.10;;;;;;5065207;28;20187;-72
2022/11/20 01:18:54;;;;;;;0.25;0.25;;;19.70;68.80;;;;;;5069530;28;20194;-72
2022/11/20 01:21:22;;;;;;;0.35;0.35;;;19.70;68.30;;;;;;5073666;28;20180;-72
2022/11/20 01:23:49;;;;;;;1.55;0.20;;;19.70;68.70;;;;;;5068226;28;20179;-72
2022/11/20 01:26:18;;;;;;;2.90;0.20;;;19.80;68.20;;;;;;5067901;28;20573;-71
2022/11/20 01:28:44;;;;;;;0.30;0.28;;;19.70;68.30;;;;;;5064545;28;20225;-71
2022/11/20 01:31:21;;;;;;;0.95;0.28;;;19.70;68.00;;;;;;5067736;28;20211;-72
2022/11/20 01:33:49;;;;;;;0.20;0.20;;;19.60;68.20;;;;;;5072376;28;20181;-73
2022/11/20 01:36:16;;;;;;;0.10;0.10;;;19.60;67.90;;;;;;5072863;28;20219;-71
2022/11/20 01:38:42;;;;;;;0.20;0.20;;;19.70;68.70;;;;;;5064239;28;20267;-72
2022/11/20 01:41:09;;;;;;;3.45;0.20;;;19.70;68.50;;;;;;5072771;28;20226;-73
2022/11/20 01:43:34;;;;;;;0.20;0.10;;;19.70;68.70;;;;;;5063983;28;20722;-72
2022/11/20 01:46:18;;;;;;;1.13;0.20;;;19.70;68.00;;;;;;5073949;28;20228;-72
2022/11/20 01:48:46;;;;;;;0.17;0.17;;;19.70;68.70;;;;;;5064414;28;20217;-72
2022/11/20 01:51:35;;;;;;;0.20;0.20;;;19.70;68.60;;;;;;5070875;28;20272;-72
2022/11/20 01:54:06;;;;;;;0.25;0.20;;;19.70;69.30;;;;;;5004110;28;20311;-72
2022/11/20 01:56:36;;;;;;;0.57;0.10;;;19.70;69.10;;;;;;5019657;28;21473;-73
2022/11/20 01:59:05;;;;;;;0.32;0.20;;;19.70;69.10;;;;;;5019068;28;20223;-72
2022/11/20 02:01:31;;;;;;;0.30;0.30;;;19.60;68.90;;;;;;5019803;28;20180;-71
2022/11/20 02:03:58;;;;;;;0.95;0.20;;;19.60;68.50;;;;;;5020052;28;20632;-71
2022/11/20 02:06:27;;;;;;;0.88;0.30;;;19.60;68.80;;;;;;5020659;28;20197;-71
2022/11/20 02:08:54;;;;;;;2.08;0.20;;;19.50;68.00;;;;;;5019854;28;20188;-72
2022/11/20 02:11:20;;;;;;;0.57;0.10;;;19.40;69.30;;;;;;5019787;28;20226;-71
2022/11/20 02:13:46;;;;;;;1.60;0.20;;;19.40;68.90;;;;;;5019462;28;20180;-72
2022/11/20 02:16:24;;;;;;;0.88;0.20;;;19.40;69.00;;;;;;5020750;28;20184;-72
2022/11/20 02:18:51;;;;;;;0.17;0.17;;;19.40;69.10;;;;;;5018084;28;20196;-72
2022/11/20 02:21:54;;;;;;;0.10;0.10;;;19.40;68.90;;;;;;5020767;28;20192;-71
2022/11/20 02:24:22;;;;;;;0.65;0.10;;;19.30;68.40;;;;;;5020680;28;20204;-72
2022/11/20 02:27:03;;;;;;;0.30;0.30;;;19.30;68.50;;;;;;5017988;28;20212;-71
2022/11/20 02:29:47;;;;;;;0.30;0.20;;;19.40;69.10;;;;;;5020170;28;20748;-71
2022/11/20 02:32:21;;;;;;;0.15;0.15;;;19.40;69.10;;;;;;5066262;28;20249;-72
2022/11/20 02:34:47;;;;;;;2.30;0.20;;;19.40;69.20;;;;;;5070685;28;20186;-71
2022/11/20 02:37:13;;;;;;;0.20;0.20;;;19.40;68.90;;;;;;5071498;28;20191;-71
2022/11/20 02:39:40;;;;;;;4.38;0.20;;;19.40;69.00;;;;;;5067352;28;20175;-72
2022/11/20 02:42:05;;;;;;;0.40;0.38;;;19.40;68.40;;;;;;5063709;28;20187;-73
2022/11/20 02:44:31;;;;;;;0.13;0.13;;;19.40;69.40;;;;;;5068825;28;20626;-73
2022/11/20 02:46:58;;;;;;;0.38;0.20;;;19.40;69.20;;;;;;5065794;28;20216;-72
2022/11/20 02:49:24;;;;;;;0.73;0.20;;;19.30;68.80;;;;;;5069664;28;20179;-73
2022/11/20 02:51:50;;;;;;;0.20;0.20;;;19.30;69.80;;;;;;5067211;28;20186;-72
2022/11/20 02:54:15;;;;;;;0.43;0.20;;;19.40;69.20;;;;;;5061701;28;20623;-72
2022/11/20 02:56:41;;;;;;;0.20;0.20;;;19.40;69.90;;;;;;5068263;28;20210;-71
2022/11/20 02:59:07;;;;;;;0.25;0.25;;;19.40;69.50;;;;;;5064566;28;20257;-72
2022/11/20 03:01:33;;;;;;;0.35;0.30;;;19.30;69.80;;;;;;5073398;28;20179;-72
2022/11/20 03:03:58;;;;;;;0.60;0.30;;;19.30;70.30;;;;;;5065974;28;20183;-71
2022/11/20 03:06:24;;;;;;;0.50;0.30;;;19.20;70.60;;;;;;5069944;28;20183;-73
2022/11/20 03:08:50;;;;;;;0.30;0.30;;;19.10;70.80;;;;;;5064330;28;21011;-73
2022/11/20 03:11:16;;;;;;;0.20;0.20;;;19.10;70.70;;;;;;5067235;28;20594;-73
2022/11/20 03:13:42;;;;;;;1.45;0.30;;;19.10;70.80;;;;;;5068223;28;21640;-73
2022/11/20 03:16:16;;;;;;;0.30;0.30;;;19.00;70.90;;;;;;5065471;28;20187;-73
2022/11/20 03:18:43;;;;;;;0.40;0.40;;;19.00;71.40;;;;;;5059824;28;20178;-73
2022/11/20 03:21:10;;;;;;;2.65;0.50;;;19.10;71.40;;;;;;5069493;28;20183;-72
2022/11/20 03:23:36;;;;;;;0.38;0.38;;;19.00;71.60;;;;;;5067017;28;20190;-72
2022/11/20 03:26:22;;;;;;;0.65;0.30;;;19.10;71.50;;;;;;5069873;28;20316;-72
2022/11/20 03:28:53;;;;;;;2.05;0.43;;;19.00;71.60;;;;;;5067296;28;20193;-73
2022/11/20 03:31:22;;;;;;;0.80;0.30;;;18.90;71.90;;;;;;5067548;28;20194;-72
2022/11/20 03:33:48;;;;;;;0.40;0.40;;;18.90;71.90;;;;;;5069007;28;20175;-73
2022/11/20 03:36:16;;;;;;;0.20;0.20;;;18.90;71.80;;;;;;5066848;28;20611;-73
2022/11/20 03:38:42;;;;;;;0.85;0.20;;;18.70;71.70;;;;;;5062286;28;20261;-73
2022/11/20 03:41:14;;;;;;;1.45;0.40;;;18.70;72.00;;;;;;5067314;28;20186;-73
2022/11/20 03:43:40;;;;;;;5.60;0.47;;;18.80;72.20;;;;;;5072833;28;20183;-72
2022/11/20 03:46:06;;;;;;;1.33;0.40;;;18.80;72.00;;;;;;5065569;28;20731;-72
2022/11/20 03:48:32;;;;;;;0.20;0.20;;;18.80;71.90;;;;;;5064128;28;20887;-72
2022/11/20 03:51:28;;;;;;;0.50;0.40;;;18.80;71.60;;;;;;5072839;28;20202;-72
2022/11/20 03:53:55;;;;;;;0.40;0.40;;;18.70;71.80;;;;;;5006784;28;20275;-73
2022/11/20 03:56:27;;;;;;;0.22;0.22;;;18.80;72.20;;;;;;5022971;28;20733;-72
2022/11/20 03:58:52;;;;;;;0.20;0.20;;;18.80;71.90;;;;;;5002680;28;20208;-73
2022/11/20 04:01:21;;;;;;;1.02;0.40;;;18.70;71.80;;;;;;5024015;28;20654;-73
2022/11/20 04:03:47;;;;;;;1.35;0.20;;;18.80;72.20;;;;;;5003763;28;20363;-71
2022/11/20 04:06:14;;;;;;;1.85;0.30;;;18.80;72.00;;;;;;5007357;28;20689;-73
2022/11/20 04:08:40;;;;;;;3.03;0.32;;;18.70;71.80;;;;;;5022696;28;20216;-72
2022/11/20 04:11:09;;;;;;;0.30;0.30;;;18.60;71.90;;;;;;5022630;28;20837;-72
2022/11/20 04:13:35;;;;;;;0.30;0.30;;;18.70;72.30;;;;;;5024017;28;20219;-72
2022/11/20 04:16:01;;;;;;;0.20;0.20;;;18.70;71.90;;;;;;5028222;28;20188;-72
2022/11/20 04:18:27;;;;;;;0.50;0.20;;;18.80;72.00;;;;;;5024243;28;20207;-73
2022/11/20 04:20:52;;;;;;;0.40;0.40;;;18.80;71.60;;;;;;5023181;28;20187;-72
2022/11/20 04:23:18;;;;;;;0.45;0.22;;;18.80;71.70;;;;;;5026217;28;20209;-72
2022/11/20 04:25:43;;;;;;;0.38;0.38;;;18.90;71.80;;;;;;5025437;28;20246;-73
2022/11/20 04:28:09;;;;;;;0.20;0.20;;;18.90;71.60;;;;;;5004584;28;20647;-73
2022/11/20 04:30:35;;;;;;;0.40;0.40;;;18.70;71.70;;;;;;5048148;28;20195;-73
2022/11/20 04:33:00;;;;;;;0.20;0.20;;;18.60;71.80;;;;;;5064180;28;20191;-72
2022/11/20 04:35:26;;;;;;;0.25;0.22;;;18.60;72.10;;;;;;5068987;28;20664;-73
2022/11/20 04:37:52;;;;;;;1.27;0.20;;;18.70;72.00;;;;;;5068455;28;20190;-72
2022/11/20 04:40:18;;;;;;;0.50;0.30;;;18.70;72.00;;;;;;5066686;28;20183;-72
2022/11/20 04:42:43;;;;;;;0.20;0.20;;;18.80;71.90;;;;;;5064565;28;20289;-73
2022/11/20 04:45:09;;;;;;;0.65;0.13;;;18.80;72.00;;;;;;5063858;28;20251;-73
2022/11/20 04:47:35;;;;;;;0.68;0.30;;;18.70;72.10;;;;;;5065229;28;20225;-73
2022/11/20 04:50:00;;;;;;;0.32;0.10;;;18.60;72.20;;;;;;5065918;28;20196;-72
2022/11/20 04:52:26;;;;;;;0.20;0.20;;;18.50;72.60;;;;;;5068242;28;20210;-72
2022/11/20 04:54:53;;;;;;;0.32;0.13;;;18.60;72.60;;;;;;5063728;28;20185;-72
2022/11/20 04:57:19;;;;;;;0.98;0.20;;;18.50;72.50;;;;;;5066368;28;20178;-73
2022/11/20 04:59:45;;;;;;;0.32;0.32;;;18.40;72.70;;;;;;5061863;28;20179;-72
2022/11/20 05:02:11;;;;;;;0.20;0.20;;;18.30;72.30;;;;;;5072359;28;20229;-72
2022/11/20 05:04:36;;;;;;;0.40;0.30;;;18.30;73.00;;;;;;5068086;28;20236;-73
2022/11/20 05:07:02;;;;;;;1.00;0.30;;;18.30;72.70;;;;;;5076873;28;20217;-72
2022/11/20 05:09:28;;;;;;;0.98;0.20;;;18.40;72.60;;;;;;5071498;28;20256;-72
2022/11/20 05:11:54;;;;;;;0.10;0.10;;;18.50;72.40;;;;;;5070948;28;20271;-73
2022/11/20 05:14:19;;;;;;;0.10;0.10;;;18.40;72.00;;;;;;5067769;28;20194;-73
2022/11/20 05:16:45;;;;;;;0.20;0.20;;;18.40;72.20;;;;;;5072977;28;20186;-73
2022/11/20 05:19:10;;;;;;;0.60;0.20;;;18.40;72.60;;;;;;5073235;28;20190;-73
2022/11/20 05:21:36;;;;;;;0.20;0.20;;;18.30;72.30;;;;;;5070345;28;20182;-72
2022/11/20 05:24:02;;;;;;;0.17;0.15;;;18.40;72.30;;;;;;5070846;28;20178;-72
2022/11/20 05:26:27;;;;;;;0.57;0.20;;;18.40;72.20;;;;;;5071950;28;20223;-73
2022/11/20 05:28:53;;;;;;;0.25;0.15;;;18.40;72.20;;;;;;5070934;28;20189;-73
2022/11/20 05:31:21;;;;;;;0.38;0.30;;;18.40;72.40;;;;;;5054617;28;20187;-72
2022/11/20 05:33:47;;;;;;;0.32;0.20;;;18.40;72.60;;;;;;5064417;28;20250;-73
2022/11/20 05:36:14;;;;;;;0.70;0.20;;;18.50;72.60;;;;;;5071358;28;20178;-72
2022/11/20 05:38:40;;;;;;;0.75;0.17;;;18.60;72.40;;;;;;5069432;28;20187;-72
2022/11/20 05:41:14;;;;;;;1.88;0.20;;;18.60;72.10;;;;;;5072080;28;20298;-73
2022/11/20 05:43:42;;;;;;;3.60;0.40;;;18.60;72.10;;;;;;5068671;28;20194;-72
2022/11/20 05:46:09;;;;;;;0.52;0.30;;;18.60;72.00;;;;;;5063397;28;20190;-72
2022/11/20 05:48:35;;;;;;;0.40;0.28;;;18.70;72.00;;;;;;5068444;28;20225;-72
2022/11/20 05:51:03;;;;;;;0.20;0.20;;;18.70;72.10;;;;;;5070462;28;20216;-72
2022/11/20 05:53:29;;;;;;;0.20;0.20;;;18.60;72.30;;;;;;5067328;28;20183;-72
2022/11/20 05:56:07;;;;;;;2.17;0.20;;;18.60;72.60;;;;;;5072336;28;20177;-72
2022/11/20 05:58:33;;;;;;;1.80;0.40;;;18.60;72.60;;;;;;5070596;28;20191;-74
2022/11/20 06:01:09;;;;;;;0.20;0.20;;;18.60;72.80;;;;;;5064785;28;20182;-73
2022/11/20 06:03:35;;;;;;;1.65;0.25;;;18.50;73.40;;;;;;5069820;28;20193;-72
2022/11/20 06:06:01;;;;;;;3.40;0.40;;;18.50;73.80;;;;;;5055058;28;20183;-72
2022/11/20 06:08:27;;;;;;;0.20;0.20;;;18.40;74.00;;;;;;5061695;28;20206;-73
2022/11/20 06:10:53;;;;;;;0.30;0.30;;;18.40;74.50;;;;;;5067567;28;20174;-74
2022/11/20 06:13:18;;;;;;;0.40;0.25;;;18.30;74.70;;;;;;5068061;28;20198;-73
2022/11/20 06:15:52;;;;;;;0.55;0.30;;;18.20;75.10;;;;;;5066356;28;20191;-73
2022/11/20 06:18:18;;;;;;;0.43;0.40;;;18.20;75.10;;;;;;5066795;28;20579;-73
2022/11/20 06:20:44;;;;;;;0.35;0.30;;;18.20;75.40;;;;;;5068057;28;20279;-73
2022/11/20 06:23:10;;;;;;;0.47;0.20;;;18.10;75.60;;;;;;5065753;28;20240;-73
2022/11/20 06:25:40;;;;;;;1.05;0.20;;;18.10;75.70;;;;;;5067188;28;20184;-73
2022/11/20 06:28:06;;;;;;;0.20;0.20;;;18.10;75.70;;;;;;5067276;28;20240;-73
2022/11/20 06:30:32;;;;;;;0.38;0.38;;;18.10;76.00;;;;;;5068496;28;20188;-73
2022/11/20 06:32:58;;;;;;;0.28;0.28;;;18.00;76.20;;;;;;5066828;28;20183;-73
2022/11/20 06:35:24;;;;;;;0.22;0.22;;;18.00;76.30;;;;;;5070682;28;21048;-73
2022/11/20 06:37:49;;;;;;;0.57;0.30;;;18.00;76.40;;;;;;5067124;28;21006;-73
2022/11/20 06:40:15;;;;;;;0.25;0.25;;;18.00;76.20;;;;;;5061146;28;20186;-72
2022/11/20 06:42:41;;;;;;;2.83;0.57;;;18.10;76.20;;;;;;5072672;28;20255;-72
2022/11/20 06:45:07;;;;;;;0.47;0.47;;;18.10;76.10;;;;;;5065053;28;20195;-72
2022/11/20 06:47:33;;;;;;;1.33;0.40;;;18.10;76.10;;;;;;5063103;28;20206;-72
2022/11/20 06:49:59;;;;;;;0.30;0.30;;;18.20;76.00;;;;;;5062848;28;20175;-72
2022/11/20 06:52:24;;;;;;;1.55;0.30;;;18.30;75.80;;;;;;5067323;28;20182;-72
2022/11/20 06:54:50;;;;;;;0.40;0.40;;;18.30;75.70;;;;;;5060186;28;20333;-73
2022/11/20 06:57:16;;;;;;;0.25;0.25;;;18.40;75.70;;;;;;5067258;28;20179;-73
2022/11/20 06:59:41;;;;;;;0.20;0.20;;;18.60;75.50;;;;;;5063013;28;20175;-73
2022/11/20 07:02:13;;;;;;;0.30;0.30;;;18.70;75.60;;;;;;5066556;28;20745;-73
2022/11/20 07:04:39;;;;;;;0.40;0.30;;;18.80;75.50;;;;;;5066613;28;20600;-72
2022/11/20 07:07:06;;;;;;;0.30;0.30;;;19.00;74.80;;;;;;5068100;28;20645;-71
2022/11/20 07:09:33;;;;;;;0.38;0.38;;;19.10;74.60;;;;;;5067451;28;20209;-72
2022/11/20 07:11:59;;;;;;;0.30;0.30;;;19.20;74.70;;;;;;5063178;28;20178;-71
2022/11/20 07:14:25;;;;;;;0.30;0.30;;;19.20;74.60;;;;;;5062867;28;20186;-72
2022/11/20 07:16:50;;;;;;;0.55;0.25;;;19.30;74.40;;;;;;5065406;28;20229;-73
2022/11/20 07:19:16;;;;;;;1.35;0.22;;;19.40;73.60;;;;;;5069679;28;20633;-73
2022/11/20 07:21:41;;;;;;;0.28;0.28;;;19.40;73.50;;;;;;5069184;28;20655;-74
2022/11/20 07:24:07;;;;;;;3.10;0.43;;;19.50;73.30;;;;;;5060286;28;20736;-75
2022/11/20 07:26:33;;;;;;;0.45;0.30;;;19.50;73.30;;;;;;5070845;28;20187;-75
2022/11/20 07:28:58;;;;;;;0.40;0.30;;;19.50;73.00;;;;;;5074567;28;20186;-74
2022/11/20 07:31:24;;;;;;;1.13;0.30;;;19.60;72.70;;;;;;5074857;28;20188;-74
2022/11/20 07:33:50;;;;;;;0.20;0.20;;;19.50;72.20;;;;;;5067784;28;20179;-74
2022/11/20 07:36:15;;;;;;;1.17;0.35;;;19.50;72.60;;;;;;5067885;28;20289;-74
2022/11/20 07:38:41;;;;;;;0.30;0.30;;;19.50;72.10;;;;;;5066964;28;20182;-74
2022/11/20 07:41:07;;;;;;;0.95;0.40;;;19.40;70.80;;;;;;5064102;28;20211;-75
2022/11/20 07:43:33;;;;;;;0.77;0.22;;;19.30;71.90;;;;;;5065922;28;20998;-73
2022/11/20 07:45:58;;;;;;;0.20;0.20;;;19.40;72.10;;;;;;5065254;28;20637;-74
2022/11/20 07:48:25;;;;;;;0.25;0.25;;;19.40;72.50;;;;;;5064517;28;20207;-73
2022/11/20 07:50:57;;;;;;;0.30;0.30;;;19.40;72.70;;;;;;5069480;28;20300;-73
2022/11/20 07:53:23;;;;;;;0.40;0.38;;;19.40;72.70;;;;;;5065883;28;20186;-74
2022/11/20 07:55:52;;;;;;;0.50;0.50;;;19.40;72.70;;;;;;5064297;28;20273;-75
2022/11/20 07:58:18;;;;;;;1.65;0.63;;;19.50;72.50;;;;;;5069288;28;21698;-73
2022/11/20 08:00:44;;;;;;;0.52;0.40;;;19.50;72.30;;;;;;5061547;28;21351;-72
2022/11/20 08:03:10;;;;;;;1.90;0.63;;;19.50;72.40;;;;;;5067868;28;20186;-75
2022/11/20 08:05:35;;;;;;;1.45;0.50;;;19.50;72.50;;;;;;5064785;28;20649;-75
2022/11/20 08:08:01;;;;;;;0.50;0.50;;;19.50;72.70;;;;;;5066048;28;20727;-74
2022/11/20 08:10:27;;;;;;;1.48;0.40;;;19.50;72.80;;;;;;5066370;28;20674;-73
2022/11/20 08:15:39;;;;;;;0.40;0.40;;;19.60;72.10;;;;;;5065115;28;20193;-73
2022/11/20 08:18:11;;;;;;;1.05;0.47;;;19.60;72.50;;;;;;5065733;28;20174;-73
2022/11/20 08:20:37;;;;;;;0.20;0.20;;;19.70;72.70;;;;;;5069900;28;20179;-75
2022/11/20 08:23:05;;;;;;;0.30;0.30;;;19.90;71.30;;;;;;5064635;28;20179;-74
2022/11/20 08:25:32;;;;;;;0.25;0.25;;;20.00;71.60;;;;;;5069790;28;20651;-74
2022/11/20 08:27:59;;;;;;;0.52;0.40;;;20.10;71.80;;;;;;5065442;28;20210;-73
2022/11/20 08:30:25;;;;;;;0.75;0.55;;;20.10;70.80;;;;;;5070793;28;20178;-74
2022/11/20 08:32:51;;;;;;;0.65;0.65;;;20.20;71.20;;;;;;5067563;28;20707;-74
2022/11/20 08:35:16;;;;;;;2.38;0.57;;;20.20;71.20;;;;;;5068293;28;20179;-74
2022/11/20 08:37:45;;;;;;;3.05;0.75;;;20.40;70.30;;;;;;5068932;28;20186;-73
2022/11/20 08:40:11;;;;;;;0.60;0.60;;;20.40;70.90;;;;;;5068566;28;20178;-72
2022/11/20 08:42:37;;;;;;;3.45;0.65;;;20.50;71.10;;;;;;5071435;28;20186;-73
2022/11/20 08:45:04;;;;;;;0.70;0.70;;;20.60;70.60;;;;;;5070108;28;20198;-73
2022/11/20 08:47:30;;;;;;;0.28;0.20;;;20.60;70.20;;;;;;5071729;28;20597;-73
2022/11/20 08:49:55;;;;;;;2.50;0.30;;;20.50;69.20;;;;;;5069870;28;20179;-73
2022/11/20 08:52:21;;;;;;;1.60;0.32;;;20.10;72.40;;;;;;5071164;28;20193;-73
2022/11/20 08:54:46;;;;;;;1.48;0.50;;;19.80;74.40;;;;;;5070663;28;20186;-73
2022/11/20 08:57:12;;;;;;;0.40;0.40;;;19.50;75.40;;;;;;5063481;28;20324;-72
2022/11/20 08:59:38;;;;;;;0.90;0.80;;;19.30;76.20;;;;;;5067887;28;20261;-73
2022/11/20 09:02:03;;;;;;;0.60;0.60;;;18.90;76.30;;;;;;5071128;28;20680;-73
2022/11/20 09:04:29;;;;;;;1.80;0.70;;;18.80;77.20;;;;;;5069088;28;20183;-73
2022/11/20 09:06:55;;;;;;;1.48;0.88;;;18.60;77.80;;;;;;5066858;28;20210;-74
2022/11/20 09:09:20;;;;;;;0.60;0.60;;;18.60;77.90;;;;;;5068230;28;20575;-73
2022/11/20 09:11:46;;;;;;;0.85;0.85;;;18.50;77.60;;;;;;5067198;28;20198;-73
2022/11/20 09:14:11;;;;;;;0.70;0.70;;;18.30;78.10;;;;;;5067689;28;20959;-74
2022/11/20 09:16:37;;;;;;;0.82;0.80;;;18.30;78.30;;;;;;5072796;28;20193;-74
2022/11/20 09:19:03;;;;;;;1.90;0.82;;;18.30;78.80;;;;;;5069856;28;20187;-74
2022/11/20 09:21:28;;;;;;;0.60;0.60;;;18.10;79.10;;;;;;5075266;28;20969;-73
2022/11/20 09:23:54;;;;;;;0.55;0.38;;;18.00;79.70;;;;;;5064392;28;20190;-72
2022/11/20 09:26:20;;;;;;;1.60;0.50;;;17.80;79.30;;;;;;5067476;28;20183;-73
2022/11/20 09:28:47;;;;;;;3.30;0.65;;;17.70;80.60;;;;;;5062432;28;20302;-73
2022/11/20 09:31:25;;;;;;;0.30;0.30;;;17.50;81.50;;;;;;5070517;28;20193;-73
2022/11/20 09:33:50;;;;;;;0.40;0.40;;;17.50;81.20;;;;;;5067790;28;20189;-72
2022/11/20 09:36:18;;;;;;;0.65;0.32;;;17.30;81.00;;;;;;5078425;28;20190;-73
2022/11/20 09:38:45;;;;;;;0.30;0.30;;;17.30;81.30;;;;;;5074906;28;20193;-73
2022/11/20 09:41:31;;;;;;;1.55;0.45;;;17.30;81.90;;;;;;5070325;28;20212;-73
2022/11/20 09:44:32;;;;;;;0.38;0.38;;;17.20;81.50;;;;;;5071055;28;20349;-73
2022/11/20 09:47:17;;;;;;;2.78;0.45;;;17.30;82.90;;;;;;5035992;28;20210;-73
2022/11/20 09:50:13;;;;;;;0.47;0.22;;;17.50;82.50;;;;;;5040125;28;20195;-72
2022/11/20 09:53:10;;;;;;;0.52;0.40;;;17.80;81.90;;;;;;5039791;28;20180;-73
2022/11/20 09:55:37;;;;;;;3.60;0.90;;;18.10;82.40;;;;;;5024229;28;20587;-73
2022/11/20 09:58:07;;;;;;;0.80;0.60;;;18.40;82.60;;;;;;5039750;28;20935;-73
2022/11/20 10:00:35;;;;;;;0.60;0.40;;;18.70;83.20;;;;;;5041064;28;20192;-73
2022/11/20 10:03:11;;;;;;;1.98;0.40;;;19.10;83.70;;;;;;5038802;28;20191;-73
2022/11/20 10:05:52;;;;;;;0.43;0.43;;;19.60;84.30;;;;;;5040680;28;20265;-73
2022/11/20 10:08:47;;;;;;;1.38;0.77;;;20.30;83.00;;;;;;5042630;28;20288;-71
2022/11/20 10:11:47;;;;;;;5.22;0.80;;;21.10;80.30;;;;;;4977192;28;20193;-72
2022/11/20 10:14:27;;;;;;;2.88;0.80;;;21.70;79.00;;;;;;4914511;29;20286;-72
2022/11/20 10:17:23;;;;;;;0.80;0.80;;;22.50;77.40;;;;;;4914704;29;20705;-72
2022/11/20 10:19:51;;;;;;;2.33;0.77;;;23.30;74.20;;;;;;4909981;29;20630;-72
2022/11/20 10:22:58;;;;;;;1.13;1.00;;;23.80;72.70;;;;;;4952535;28;20199;-72
2022/11/20 10:25:39;;;;;;;0.80;0.80;;;24.00;72.20;;;;;;4947520;28;20203;-73
2022/11/20 10:28:23;;;;;;;1.50;1.40;;;24.20;71.90;;;;;;4932852;28;20245;-79
2022/11/20 10:30:59;;;;;;;1.00;1.00;;;24.20;72.20;;;;;;4946349;28;20199;-72
2022/11/20 10:33:29;;;;;;;1.42;1.17;;;24.10;72.20;;;;;;4947375;28;20182;-72
2022/11/20 10:35:57;;;;;;;2.35;1.10;;;24.20;72.50;;;;;;4931484;28;20661;-72
2022/11/20 10:38:37;;;;;;;1.10;1.00;;;24.20;72.40;;;;;;4941496;28;20246;-73
2022/11/20 10:47:18;;;;;;;0.80;0.80;;;24.00;71.60;;;;;;4885172;29;20376;-71
2022/11/20 10:49:47;;;;;;;1.50;0.95;;;23.90;71.80;;;;;;4893278;29;20196;-72
2022/11/20 10:52:34;;;;;;;2.58;1.25;;;23.70;71.90;;;;;;4893352;29;20288;-72
2022/11/20 10:55:25;;;;;;;1.08;1.05;;;23.50;72.00;;;;;;4895300;29;20333;-72
2022/11/20 10:58:15;;;;;;;2.58;1.00;;;23.10;71.40;;;;;;4900621;29;20588;-72
2022/11/20 11:00:42;;;;;;;2.80;1.20;;;22.70;72.10;;;;;;4894508;29;20215;-72
2022/11/20 11:03:34;;;;;;;3.85;1.20;;;22.40;72.80;;;;;;4920447;29;20653;-73
2022/11/20 11:06:02;;;;;;;1.08;0.98;;;21.90;73.40;;;;;;4929553;29;20188;-73
2022/11/20 11:08:35;;;;;;;1.38;0.82;;;21.20;75.20;;;;;;4927418;29;20345;-72
2022/11/20 11:11:10;;;;;;;0.60;0.52;;;20.20;76.10;;;;;;4931295;29;20301;-72
2022/11/20 11:13:36;;;;;;;2.20;0.50;;;19.10;77.70;;;;;;4928428;29;20198;-73
2022/11/20 11:16:03;;;;;;;1.60;0.50;;;18.10;79.80;;;;;;4927764;29;20678;-75
2022/11/20 11:18:34;;;;;;;0.43;0.43;;;17.20;84.70;;;;;;4968848;28;20197;-75
2022/11/20 11:21:01;;;;;;;0.90;0.35;;;16.80;81.90;;;;;;4985653;28;20231;-75
2022/11/20 11:23:30;;;;;;;0.30;0.28;;;16.50;82.90;;;;;;5011961;28;20194;-76
2022/11/20 11:25:58;;;;;;;0.75;0.17;;;15.70;84.20;;;;;;5066589;28;20178;-76
2022/11/20 11:28:27;;;;;;;0.20;0.10;;;15.40;84.70;;;;;;5072996;28;21798;-76
2022/11/20 11:30:53;;;;;;;0.10;0.10;;;14.90;85.50;;;;;;5067331;28;20191;-77
2022/11/20 11:33:20;;;;;;;0.80;0.17;;;14.60;87.00;;;;;;5070342;28;20251;-76
2022/11/20 11:35:57;;;;;;;1.65;0.10;;;14.50;87.40;;;;;;5066620;28;20590;-76
2022/11/20 11:38:43;;;;;;;0.00;0.00;;;14.20;88.70;;;;;;5069017;28;20237;-77
2022/11/20 11:41:23;;;;;;;0.95;0.10;;;13.90;89.30;;;;;;5072191;28;20626;-77
2022/11/20 11:46:56;;;;;;;0.10;0.10;;;13.60;89.70;;;;;;5071689;28;20211;-78
2022/11/20 11:49:22;;;;;;;0.90;0.20;;;13.50;90.10;;;;;;5071218;28;20742;-79
2022/11/20 11:52:18;;;;;;;0.43;0.20;;;13.50;89.80;;;;;;5069326;28;20547;-78
2022/11/20 11:54:54;;;;;;;0.55;0.40;;;13.30;90.50;;;;;;5065152;28;20189;-83
2022/11/20 11:57:29;;;;;;;0.43;0.30;;;13.30;90.60;;;;;;5075705;28;20178;-83
2022/11/20 12:00:04;;;;;;;3.92;0.22;;;13.30;91.30;;;;;;5070353;28;20259;-83
2022/11/20 12:02:37;;;;;;;0.90;0.30;;;13.40;91.10;;;;;;5069048;28;20177;-81
2022/11/20 12:05:22;;;;;;;2.00;0.20;;;13.40;91.00;;;;;;5072038;28;20178;-81
2022/11/20 12:08:04;;;;;;;0.75;0.20;;;13.30;89.00;;;;;;5070930;28;20293;-80
2022/11/20 12:10:49;;;;;;;1.65;0.30;;;13.40;89.60;;;;;;5068318;28;20668;-80
2022/11/20 12:13:26;;;;;;;0.10;0.10;;;13.50;88.60;;;;;;5072608;28;20182;-80
2022/11/20 12:15:52;;;;;;;1.75;0.30;;;13.50;89.70;;;;;;5079959;28;20199;-79
2022/11/20 12:18:21;;;;;;;0.15;0.10;;;13.50;89.70;;;;;;5070073;28;20653;-81
2022/11/20 12:21:16;;;;;;;0.20;0.10;;;13.50;88.90;;;;;;5069535;28;20578;-81
2022/11/20 12:24:01;;;;;;;0.28;0.28;;;13.50;89.00;;;;;;5065934;28;20221;-79
2022/11/20 12:26:48;;;;;;;1.15;0.25;;;13.40;88.80;;;;;;5068338;28;20206;-81
2022/11/20 12:29:27;;;;;;;0.20;0.20;;;13.40;89.70;;;;;;5072963;28;20191;-80
2022/11/20 12:32:01;;;;;;;0.17;0.10;;;13.30;90.50;;;;;;5070154;28;20260;-80
2022/11/20 12:35:03;;;;;;;0.13;0.13;;;13.20;91.00;;;;;;5069301;28;20191;-79
2022/11/20 12:38:08;;;;;;;0.10;0.10;;;13.20;91.20;;;;;;5069080;28;20185;-81
2022/11/20 12:40:51;;;;;;;0.10;0.10;;;13.20;91.50;;;;;;5065219;28;20187;-80
2022/11/20 12:46:12;;;;;;;0.57;0.20;;;13.10;90.60;;;;;;5066934;28;20214;-80
2022/11/20 12:48:42;;;;;;;0.10;0.10;;;13.20;90.20;;;;;;5054981;28;20673;-79
2022/11/20 12:51:32;;;;;;;0.10;0.10;;;13.20;89.60;;;;;;5065993;28;20190;-79
2022/11/20 12:54:22;;;;;;;0.10;0.10;;;13.20;89.60;;;;;;5068611;28;20227;-79
2022/11/20 12:57:05;;;;;;;1.88;0.22;;;13.30;90.40;;;;;;5068013;28;20492;-79
2022/11/20 12:59:58;;;;;;;1.10;0.22;;;13.40;89.90;;;;;;5065887;28;20243;-79
2022/11/20 13:02:35;;;;;;;1.27;0.50;;;13.50;91.40;;;;;;5052542;28;20183;-79
2022/11/20 13:05:37;;;;;;;2.42;0.90;;;13.60;90.30;;;;;;5067463;28;20202;-79
2022/11/20 13:08:07;;;;;;;1.38;0.95;;;13.70;91.10;;;;;;5068042;28;20239;-78
2022/11/20 13:10:57;;;;;;;3.75;1.02;;;13.80;92.40;;;;;;5048884;28;20219;-78
2022/11/20 13:13:41;;;;;;;1.02;1.02;;;13.80;90.70;;;;;;5060400;28;20191;-78
2022/11/20 13:16:25;;;;;;;2.00;0.55;;;13.80;91.90;;;;;;5066694;28;20893;-79
2022/11/20 13:18:51;;;;;;;1.02;1.00;;;13.80;93.10;;;;;;5073236;28;20191;-79